Terminal Aerodrome Forecast
Issued by NWS Buffalo, NY

Home | Current Version | Previous Version | Text Only | Print | Product List | Glossary On
Versions: 1 2 3 4 5 6 7 8 9 10 11 12 13 14 15 16 17 18 19 20 21 22 23 24 25
762
FTUS41 KBUF 250520
TAFBUF
TAF
KBUF 250520Z 2506/2606 28008KT P6SM SCT080 OVC200
     FM250800 18012KT P6SM SCT080 OVC250
     FM251000 21013G22KT 6SM -SHRA OVC060
     FM251200 22013G22KT 3SM SHRA VCTS OVC025CB
     FM251400 23016G30KT 6SM -SHRA OVC012
     FM251600 24020G34KT P6SM SCT025 BKN120
     FM251900 24025G43KT P6SM OVC200
     FM260000 25018G32KT P6SM VCSH OVC035=

USA.gov is the U.S. government's official web portal to all federal, state and local government web resources and services.